Aviation Digital Data Service (ADDS)

Output produced by METARs form (0514 UTC 25 May 2018)
found at http://www.aviationweather.gov/adds/metars/
 
HDAM 250500Z 2506/2606 10008KT 9999 FEW023 
     BECMG 2512/2518 32006KT CAVOK 
     BECMG 2600/2606 00000KT